sensor_id;sensor_type;location;lat;lon;timestamp;pressure;altitude;pressure_sealevel;temperature;humidity
85739;BME280;76182;41.498;22.100;2024-03-23T00:53:32;100495.75;;;6.62;80.66
85739;BME280;76182;41.498;22.100;2024-03-23T00:55:58;100504.22;;;6.54;80.92
85739;BME280;76182;41.498;22.100;2024-03-23T00:58:24;100501.00;;;6.49;81.47
85739;BME280;76182;41.498;22.100;2024-03-23T01:00:49;100505.22;;;6.39;81.47
85739;BME280;76182;41.498;22.100;2024-03-23T01:03:15;100504.91;;;6.31;81.73
85739;BME280;76182;41.498;22.100;2024-03-23T01:05:40;100501.50;;;6.29;81.63
85739;BME280;76182;41.498;22.100;2024-03-23T01:08:06;100503.75;;;6.35;81.90
85739;BME280;76182;41.498;22.100;2024-03-23T01:10:31;100495.88;;;6.33;81.23
85739;BME280;76182;41.498;22.100;2024-03-23T01:12:57;100498.44;;;6.35;80.46
85739;BME280;76182;41.498;22.100;2024-03-23T01:15:22;100501.50;;;6.29;81.05
85739;BME280;76182;41.498;22.100;2024-03-23T01:17:48;100499.06;;;6.11;81.27
85739;BME280;76182;41.498;22.100;2024-03-23T01:20:13;100500.41;;;6.04;81.31
85739;BME280;76182;41.498;22.100;2024-03-23T01:22:39;100495.19;;;6.17;80.51
85739;BME280;76182;41.498;22.100;2024-03-23T01:25:05;100510.53;;;6.12;81.22
85739;BME280;76182;41.498;22.100;2024-03-23T01:27:30;100511.72;;;5.93;81.51
85739;BME280;76182;41.498;22.100;2024-03-23T01:29:55;100510.09;;;5.76;82.21
85739;BME280;76182;41.498;22.100;2024-03-23T01:32:21;100510.84;;;5.64;82.76
85739;BME280;76182;41.498;22.100;2024-03-23T01:34:47;100506.88;;;5.57;83.46
85739;BME280;76182;41.498;22.100;2024-03-23T01:37:12;100512.19;;;5.57;83.06
85739;BME280;76182;41.498;22.100;2024-03-23T01:39:37;100508.22;;;5.50;84.39
85739;BME280;76182;41.498;22.100;2024-03-23T01:42:04;100499.72;;;5.45;84.05
85739;BME280;76182;41.498;22.100;2024-03-23T01:44:29;100510.22;;;5.46;83.40
85739;BME280;76182;41.498;22.100;2024-03-23T01:46:55;100511.06;;;5.47;83.86
85739;BME280;76182;41.498;22.100;2024-03-23T01:49:20;100503.38;;;5.42;83.75
85739;BME280;76182;41.498;22.100;2024-03-23T01:51:46;100516.56;;;5.58;83.26
85739;BME280;76182;41.498;22.100;2024-03-23T01:54:12;100507.09;;;5.54;82.62
85739;BME280;76182;41.498;22.100;2024-03-23T01:56:38;100507.94;;;5.54;81.80
85739;BME280;76182;41.498;22.100;2024-03-23T01:59:04;100495.88;;;5.36;80.61
85739;BME280;76182;41.498;22.100;2024-03-23T02:01:30;100505.03;;;5.30;80.77
85739;BME280;76182;41.498;22.100;2024-03-23T02:03:57;100507.28;;;5.37;81.46
85739;BME280;76182;41.498;22.100;2024-03-23T02:06:24;100500.38;;;5.34;80.55
85739;BME280;76182;41.498;22.100;2024-03-23T02:08:50;100510.56;;;5.26;81.83
85739;BME280;76182;41.498;22.100;2024-03-23T02:11:15;100515.50;;;5.32;80.98
85739;BME280;76182;41.498;22.100;2024-03-23T02:13:41;100516.16;;;5.35;80.62
85739;BME280;76182;41.498;22.100;2024-03-23T02:16:06;100518.41;;;5.42;80.82
85739;BME280;76182;41.498;22.100;2024-03-23T02:18:32;100510.41;;;5.43;79.61
85739;BME280;76182;41.498;22.100;2024-03-23T02:20:58;100521.44;;;5.21;80.25
85739;BME280;76182;41.498;22.100;2024-03-23T02:23:23;100526.50;;;5.10;79.97
85739;BME280;76182;41.498;22.100;2024-03-23T02:25:50;100521.50;;;5.05;81.67
85739;BME280;76182;41.498;22.100;2024-03-23T02:28:15;100516.22;;;5.20;79.66
85739;BME280;76182;41.498;22.100;2024-03-23T02:30:42;100520.31;;;5.11;79.04
85739;BME280;76182;41.498;22.100;2024-03-23T02:33:07;100505.47;;;5.08;80.26
85739;BME280;76182;41.498;22.100;2024-03-23T02:35:33;100513.09;;;4.99;79.50
85739;BME280;76182;41.498;22.100;2024-03-23T02:37:59;100518.09;;;5.03;80.23
85739;BME280;76182;41.498;22.100;2024-03-23T02:40:25;100512.75;;;5.05;79.24
85739;BME280;76182;41.498;22.100;2024-03-23T02:42:51;100511.13;;;5.02;79.40
85739;BME280;76182;41.498;22.100;2024-03-23T02:45:16;100516.88;;;5.09;79.74
85739;BME280;76182;41.498;22.100;2024-03-23T02:47:42;100521.97;;;4.98;79.33
85739;BME280;76182;41.498;22.100;2024-03-23T02:50:08;100512.88;;;4.87;79.29
85739;BME280;76182;41.498;22.100;2024-03-23T02:52:34;100517.97;;;4.91;78.56
85739;BME280;76182;41.498;22.100;2024-03-23T02:55:00;100519.13;;;4.86;79.20
85739;BME280;76182;41.498;22.100;2024-03-23T02:57:27;100517.78;;;4.79;80.09
85739;BME280;76182;41.498;22.100;2024-03-23T02:59:53;100534.00;;;4.73;78.31
85739;BME280;76182;41.498;22.100;2024-03-23T03:02:18;100525.28;;;4.71;78.33
85739;BME280;76182;41.498;22.100;2024-03-23T03:04:44;100529.56;;;4.74;78.32
85739;BME280;76182;41.498;22.100;2024-03-23T03:07:09;100527.34;;;4.66;79.36
85739;BME280;76182;41.498;22.100;2024-03-23T03:09:35;100522.53;;;4.58;81.09
85739;BME280;76182;41.498;22.100;2024-03-23T03:12:01;100520.53;;;4.62;81.25
85739;BME280;76182;41.498;22.100;2024-03-23T03:14:27;100525.81;;;4.62;80.87
85739;BME280;76182;41.498;22.100;2024-03-23T03:16:53;100520.84;;;4.72;79.32
85739;BME280;76182;41.498;22.100;2024-03-23T03:19:19;100514.81;;;4.70;79.66
85739;BME280;76182;41.498;22.100;2024-03-23T03:21:44;100497.84;;;4.44;80.19
85739;BME280;76182;41.498;22.100;2024-03-23T03:24:10;100524.66;;;4.52;79.16
85739;BME280;76182;41.498;22.100;2024-03-23T03:26:35;100531.47;;;4.56;79.36
85739;BME280;76182;41.498;22.100;2024-03-23T03:29:01;100530.81;;;4.36;79.32
85739;BME280;76182;41.498;22.100;2024-03-23T03:31:27;100533.31;;;4.24;80.80
85739;BME280;76182;41.498;22.100;2024-03-23T03:33:52;100536.72;;;4.26;81.65
85739;BME280;76182;41.498;22.100;2024-03-23T03:36:18;100536.97;;;4.21;80.24
85739;BME280;76182;41.498;22.100;2024-03-23T03:38:43;100544.56;;;4.11;81.35
85739;BME280;76182;41.498;22.100;2024-03-23T03:41:09;100534.25;;;4.07;81.52
85739;BME280;76182;41.498;22.100;2024-03-23T03:43:34;100544.13;;;4.03;80.77
85739;BME280;76182;41.498;22.100;2024-03-23T03:46:00;100535.34;;;4.03;82.23
85739;BME280;76182;41.498;22.100;2024-03-23T03:48:26;100536.72;;;4.10;81.98
85739;BME280;76182;41.498;22.100;2024-03-23T03:50:52;100536.63;;;4.11;81.06
85739;BME280;76182;41.498;22.100;2024-03-23T03:53:19;100529.56;;;4.12;80.60
85739;BME280;76182;41.498;22.100;2024-03-23T03:55:44;100519.78;;;3.82;82.24
85739;BME280;76182;41.498;22.100;2024-03-23T03:58:10;100532.03;;;3.83;80.98
85739;BME280;76182;41.498;22.100;2024-03-23T04:00:35;100528.19;;;3.89;81.60
85739;BME280;76182;41.498;22.100;2024-03-23T04:03:01;100518.31;;;3.92;81.57
85739;BME280;76182;41.498;22.100;2024-03-23T04:05:27;100530.00;;;4.04;80.11
85739;BME280;76182;41.498;22.100;2024-03-23T04:07:52;100530.50;;;4.11;81.06
85739;BME280;76182;41.498;22.100;2024-03-23T04:10:18;100534.59;;;4.01;81.08
85739;BME280;76182;41.498;22.100;2024-03-23T04:12:44;100537.75;;;3.91;80.58
85739;BME280;76182;41.498;22.100;2024-03-23T04:15:10;100535.59;;;3.82;79.65
85739;BME280;76182;41.498;22.100;2024-03-23T04:17:36;100513.47;;;3.69;79.82
85739;BME280;76182;41.498;22.100;2024-03-23T04:20:02;100542.41;;;3.86;80.75
85739;BME280;76182;41.498;22.100;2024-03-23T04:22:30;100547.50;;;3.74;79.71
85739;BME280;76182;41.498;22.100;2024-03-23T04:24:56;100535.75;;;3.63;81.52
85739;BME280;76182;41.498;22.100;2024-03-23T04:27:22;100547.19;;;3.80;79.79
85739;BME280;76182;41.498;22.100;2024-03-23T04:29:52;100553.78;;;3.71;81.45
85739;BME280;76182;41.498;22.100;2024-03-23T04:32:18;100550.41;;;3.69;82.27
85739;BME280;76182;41.498;22.100;2024-03-23T04:34:44;100550.03;;;3.75;81.54
85739;BME280;76182;41.498;22.100;2024-03-23T04:37:11;100552.53;;;3.78;81.52
85739;BME280;76182;41.498;22.100;2024-03-23T04:39:36;100550.50;;;3.99;78.42
85739;BME280;76182;41.498;22.100;2024-03-23T04:42:03;100547.19;;;3.80;79.96
85739;BME280;76182;41.498;22.100;2024-03-23T04:44:29;100562.00;;;3.82;79.56
85739;BME280;76182;41.498;22.100;2024-03-23T04:46:54;100561.72;;;3.87;79.68
85739;BME280;76182;41.498;22.100;2024-03-23T04:49:20;100559.88;;;4.05;79.91
85739;BME280;76182;41.498;22.100;2024-03-23T04:51:45;100567.97;;;4.02;81.75
85739;BME280;76182;41.498;22.100;2024-03-23T04:54:14;100562.53;;;4.21;79.28
85739;BME280;76182;41.498;22.100;2024-03-23T04:56:40;100564.63;;;4.46;79.41
85739;BME280;76182;41.498;22.100;2024-03-23T04:59:06;100565.22;;;4.67;77.30
85739;BME280;76182;41.498;22.100;2024-03-23T05:01:32;100565.00;;;4.85;76.46
85739;BME280;76182;41.498;22.100;2024-03-23T05:03:57;100566.88;;;4.83;75.84
85739;BME280;76182;41.498;22.100;2024-03-23T05:06:23;100567.41;;;4.74;76.21
85739;BME280;76182;41.498;22.100;2024-03-23T05:08:49;100564.66;;;5.06;75.55
85739;BME280;76182;41.498;22.100;2024-03-23T05:11:14;100567.19;;;5.38;76.10
85739;BME280;76182;41.498;22.100;2024-03-23T05:13:59;100555.66;;;5.81;75.07
85739;BME280;76182;41.498;22.100;2024-03-23T05:16:26;100563.56;;;6.52;73.48
85739;BME280;76182;41.498;22.100;2024-03-23T05:18:51;100561.00;;;7.42;69.73
85739;BME280;76182;41.498;22.100;2024-03-23T05:21:17;100563.25;;;7.61;69.57
85739;BME280;76182;41.498;22.100;2024-03-23T05:23:42;100560.47;;;7.88;67.83
85739;BME280;76182;41.498;22.100;2024-03-23T05:26:08;100570.50;;;8.09;66.24
85739;BME280;76182;41.498;22.100;2024-03-23T05:28:34;100566.25;;;8.91;62.83
85739;BME280;76182;41.498;22.100;2024-03-23T05:31:00;100553.38;;;9.09;62.20
85739;BME280;76182;41.498;22.100;2024-03-23T05:33:25;100554.59;;;9.16;60.43
85739;BME280;76182;41.498;22.100;2024-03-23T05:35:58;100553.31;;;10.23;59.05
85739;BME280;76182;41.498;22.100;2024-03-23T05:38:24;100554.84;;;10.59;59.40
85739;BME280;76182;41.498;22.100;2024-03-23T05:40:59;100559.41;;;11.22;56.56
85739;BME280;76182;41.498;22.100;2024-03-23T05:43:26;100548.44;;;11.46;56.19
85739;BME280;76182;41.498;22.100;2024-03-23T05:45:59;100547.16;;;11.92;54.74
85739;BME280;76182;41.498;22.100;2024-03-23T05:48:25;100549.28;;;11.98;54.85
85739;BME280;76182;41.498;22.100;2024-03-23T05:50:52;100541.56;;;11.95;54.31
85739;BME280;76182;41.498;22.100;2024-03-23T05:53:18;100550.88;;;12.20;53.29
85739;BME280;76182;41.498;22.100;2024-03-23T05:55:47;100549.31;;;12.77;52.79
85739;BME280;76182;41.498;22.100;2024-03-23T05:58:16;100541.53;;;13.13;51.92
85739;BME280;76182;41.498;22.100;2024-03-23T06:00:43;100550.84;;;13.18;51.21
85739;BME280;76182;41.498;22.100;2024-03-23T06:03:09;100547.31;;;13.28;50.78
85739;BME280;76182;41.498;22.100;2024-03-23T06:05:35;100534.91;;;12.97;51.35
85739;BME280;76182;41.498;22.100;2024-03-23T06:08:01;100547.16;;;13.10;50.43
85739;BME280;76182;41.498;22.100;2024-03-23T06:10:26;100541.38;;;13.81;48.69
85739;BME280;76182;41.498;22.100;2024-03-23T06:12:51;100539.53;;;14.36;48.59
85739;BME280;76182;41.498;22.100;2024-03-23T06:15:20;100537.31;;;14.32;48.05
85739;BME280;76182;41.498;22.100;2024-03-23T06:17:46;100537.25;;;14.42;47.84
85739;BME280;76182;41.498;22.100;2024-03-23T06:20:12;100538.78;;;13.89;49.38
85739;BME280;76182;41.498;22.100;2024-03-23T06:22:38;100538.84;;;14.34;48.13
85739;BME280;76182;41.498;22.100;2024-03-23T06:25:04;100547.06;;;15.22;46.46
85739;BME280;76182;41.498;22.100;2024-03-23T06:27:30;100546.53;;;14.47;50.32
85739;BME280;76182;41.498;22.100;2024-03-23T06:29:57;100537.09;;;14.97;47.62
85739;BME280;76182;41.498;22.100;2024-03-23T06:32:22;100537.50;;;14.84;47.88
85739;BME280;76182;41.498;22.100;2024-03-23T06:34:48;100539.69;;;13.80;50.11
85739;BME280;76182;41.498;22.100;2024-03-23T06:37:13;100542.28;;;15.34;48.36
85739;BME280;76182;41.498;22.100;2024-03-23T06:39:39;100544.41;;;16.09;46.81
85739;BME280;76182;41.498;22.100;2024-03-23T06:42:05;100543.75;;;14.67;50.23
85739;BME280;76182;41.498;22.100;2024-03-23T06:44:31;100546.91;;;16.10;45.41
85739;BME280;76182;41.498;22.100;2024-03-23T06:46:57;100535.81;;;16.72;44.04
85739;BME280;76182;41.498;22.100;2024-03-23T06:49:22;100532.78;;;17.24;43.04
85739;BME280;76182;41.498;22.100;2024-03-23T06:51:48;100528.53;;;17.46;42.12
85739;BME280;76182;41.498;22.100;2024-03-23T06:54:14;100537.06;;;16.27;45.15
85739;BME280;76182;41.498;22.100;2024-03-23T06:56:40;100540.88;;;15.74;45.21
85739;BME280;76182;41.498;22.100;2024-03-23T06:59:06;100526.59;;;16.99;43.68
85739;BME280;76182;41.498;22.100;2024-03-23T07:01:31;100522.47;;;16.46;44.68
85739;BME280;76182;41.498;22.100;2024-03-23T07:03:57;100531.22;;;14.93;48.13
85739;BME280;76182;41.498;22.100;2024-03-23T07:06:22;100527.25;;;16.77;44.74
85739;BME280;76182;41.498;22.100;2024-03-23T07:08:48;100519.91;;;17.75;42.56
85739;BME280;76182;41.498;22.100;2024-03-23T07:11:20;100523.75;;;16.26;43.79
85739;BME280;76182;41.498;22.100;2024-03-23T07:13:46;100525.41;;;16.85;44.77
85739;BME280;76182;41.498;22.100;2024-03-23T07:16:12;100521.03;;;16.84;44.11
85739;BME280;76182;41.498;22.100;2024-03-23T07:18:38;100517.50;;;17.00;44.39
85739;BME280;76182;41.498;22.100;2024-03-23T07:21:04;100508.28;;;18.14;42.16
85739;BME280;76182;41.498;22.100;2024-03-23T07:23:31;100506.28;;;18.08;41.59
85739;BME280;76182;41.498;22.100;2024-03-23T07:26:01;100501.00;;;17.75;41.92
85739;BME280;76182;41.498;22.100;2024-03-23T07:28:27;100500.88;;;18.08;42.28
85739;BME280;76182;41.498;22.100;2024-03-23T07:31:08;100513.44;;;16.05;45.40
85739;BME280;76182;41.498;22.100;2024-03-23T07:33:35;100509.09;;;14.81;49.47
85739;BME280;76182;41.498;22.100;2024-03-23T07:36:00;100506.06;;;16.23;46.47
85739;BME280;76182;41.498;22.100;2024-03-23T07:38:27;100509.88;;;15.96;47.22
85739;BME280;76182;41.498;22.100;2024-03-23T07:41:05;100508.97;;;15.87;48.90
85739;BME280;76182;41.498;22.100;2024-03-23T07:43:31;100501.75;;;14.66;51.88
85739;BME280;76182;41.498;22.100;2024-03-23T07:45:56;100500.91;;;13.64;54.36
85739;BME280;76182;41.498;22.100;2024-03-23T07:48:22;100495.81;;;13.43;55.79
85739;BME280;76182;41.498;22.100;2024-03-23T07:53:36;100494.88;;;13.25;56.76
85739;BME280;76182;41.498;22.100;2024-03-23T07:56:08;100494.75;;;12.88;57.02
85739;BME280;76182;41.498;22.100;2024-03-23T07:58:38;100488.53;;;12.97;57.42
85739;BME280;76182;41.498;22.100;2024-03-23T08:01:09;100482.78;;;12.72;57.23
85739;BME280;76182;41.498;22.100;2024-03-23T08:03:36;100484.19;;;12.76;57.33
85739;BME280;76182;41.498;22.100;2024-03-23T08:06:19;100482.75;;;13.02;57.01
85739;BME280;76182;41.498;22.100;2024-03-23T08:08:46;100470.38;;;12.91;58.10
85739;BME280;76182;41.498;22.100;2024-03-23T08:11:12;100475.69;;;13.10;56.83
85739;BME280;76182;41.498;22.100;2024-03-23T08:13:40;100477.94;;;13.25;56.46
85739;BME280;76182;41.498;22.100;2024-03-23T08:16:07;100477.38;;;13.02;58.15
85739;BME280;76182;41.498;22.100;2024-03-23T08:18:34;100466.94;;;12.98;57.91
85739;BME280;76182;41.498;22.100;2024-03-23T08:21:04;100476.66;;;13.29;57.06
85739;BME280;76182;41.498;22.100;2024-03-23T08:23:31;100460.78;;;13.45;56.70
85739;BME280;76182;41.498;22.100;2024-03-23T08:26:03;100467.13;;;13.81;55.52
85739;BME280;76182;41.498;22.100;2024-03-23T08:28:29;100456.41;;;13.99;54.92
85739;BME280;76182;41.498;22.100;2024-03-23T08:30:55;100451.78;;;13.36;56.46
85739;BME280;76182;41.498;22.100;2024-03-23T08:33:21;100456.22;;;13.55;56.53
85739;BME280;76182;41.498;22.100;2024-03-23T08:36:00;100450.88;;;13.55;55.88
85739;BME280;76182;41.498;22.100;2024-03-23T08:38:26;100443.44;;;13.77;55.15
85739;BME280;76182;41.498;22.100;2024-03-23T08:41:00;100438.31;;;13.83;55.67
85739;BME280;76182;41.498;22.100;2024-03-23T08:43:26;100431.31;;;14.00;54.85
85739;BME280;76182;41.498;22.100;2024-03-23T08:45:52;100430.97;;;13.85;55.83
85739;BME280;76182;41.498;22.100;2024-03-23T08:48:21;100431.31;;;14.00;54.35
85739;BME280;76182;41.498;22.100;2024-03-23T08:50:47;100424.00;;;13.93;53.34
85739;BME280;76182;41.498;22.100;2024-03-23T08:53:12;100424.75;;;14.03;54.12
85739;BME280;76182;41.498;22.100;2024-03-23T08:55:38;100422.47;;;14.08;54.34
85739;BME280;76182;41.498;22.100;2024-03-23T08:58:03;100412.38;;;14.55;52.73
85739;BME280;76182;41.498;22.100;2024-03-23T09:00:29;100403.78;;;14.70;52.31
85739;BME280;76182;41.498;22.100;2024-03-23T09:02:55;100403.06;;;14.68;52.69
85739;BME280;76182;41.498;22.100;2024-03-23T09:05:22;100396.03;;;14.67;51.02
85739;BME280;76182;41.498;22.100;2024-03-23T09:07:49;100395.50;;;14.89;49.98
85739;BME280;76182;41.498;22.100;2024-03-23T09:10:14;100395.81;;;14.86;50.99
85739;BME280;76182;41.498;22.100;2024-03-23T09:12:40;100385.50;;;14.99;48.20
85739;BME280;76182;41.498;22.100;2024-03-23T09:15:05;100382.38;;;15.12;48.49
85739;BME280;76182;41.498;22.100;2024-03-23T09:17:31;100369.81;;;15.21;49.99
85739;BME280;76182;41.498;22.100;2024-03-23T09:19:57;100370.56;;;15.39;47.38
85739;BME280;76182;41.498;22.100;2024-03-23T09:22:22;100360.63;;;15.32;49.26
85739;BME280;76182;41.498;22.100;2024-03-23T09:24:47;100359.00;;;15.04;47.26
85739;BME280;76182;41.498;22.100;2024-03-23T09:27:13;100348.97;;;15.15;47.82
85739;BME280;76182;41.498;22.100;2024-03-23T09:29:38;100354.38;;;15.23;47.18
85739;BME280;76182;41.498;22.100;2024-03-23T09:32:04;100347.81;;;15.17;46.40
85739;BME280;76182;41.498;22.100;2024-03-23T09:34:30;100339.41;;;14.86;47.95
85739;BME280;76182;41.498;22.100;2024-03-23T09:36:55;100336.19;;;15.51;46.18
85739;BME280;76182;41.498;22.100;2024-03-23T09:39:21;100326.44;;;15.66;45.65
85739;BME280;76182;41.498;22.100;2024-03-23T09:41:46;100318.97;;;16.03;44.79
85739;BME280;76182;41.498;22.100;2024-03-23T09:44:12;100317.44;;;16.25;44.26
85739;BME280;76182;41.498;22.100;2024-03-23T09:46:38;100313.09;;;16.24;42.73
85739;BME280;76182;41.498;22.100;2024-03-23T09:49:06;100318.13;;;16.10;42.61
85739;BME280;76182;41.498;22.100;2024-03-23T09:51:35;100308.84;;;16.29;41.80
85739;BME280;76182;41.498;22.100;2024-03-23T09:54:01;100299.59;;;16.32;42.89
85739;BME280;76182;41.498;22.100;2024-03-23T09:56:26;100297.38;;;16.52;41.88
85739;BME280;76182;41.498;22.100;2024-03-23T09:59:00;100290.66;;;16.48;40.85
85739;BME280;76182;41.498;22.100;2024-03-23T10:01:26;100288.00;;;16.31;41.13
85739;BME280;76182;41.498;22.100;2024-03-23T10:03:51;100282.28;;;16.18;40.45
85739;BME280;76182;41.498;22.100;2024-03-23T10:06:21;100280.38;;;16.51;41.46
85739;BME280;76182;41.498;22.100;2024-03-23T10:08:47;100274.84;;;16.53;41.26
85739;BME280;76182;41.498;22.100;2024-03-23T10:11:14;100271.56;;;16.74;38.67
85739;BME280;76182;41.498;22.100;2024-03-23T10:13:42;100273.25;;;16.83;39.05
85739;BME280;76182;41.498;22.100;2024-03-23T10:16:08;100248.19;;;16.74;38.86
85739;BME280;76182;41.498;22.100;2024-03-23T10:18:37;100258.22;;;16.97;37.79
85739;BME280;76182;41.498;22.100;2024-03-23T10:21:07;100257.78;;;16.60;38.61
85739;BME280;76182;41.498;22.100;2024-03-23T10:23:34;100251.19;;;16.79;40.01
85739;BME280;76182;41.498;22.100;2024-03-23T10:26:22;100243.16;;;17.10;39.71
85739;BME280;76182;41.498;22.100;2024-03-23T10:28:54;100234.44;;;17.31;39.51
85739;BME280;76182;41.498;22.100;2024-03-23T10:31:23;100230.97;;;17.46;38.58
85739;BME280;76182;41.498;22.100;2024-03-23T10:33:49;100222.50;;;17.49;37.32
85739;BME280;76182;41.498;22.100;2024-03-23T10:36:15;100213.94;;;17.45;38.66
85739;BME280;76182;41.498;22.100;2024-03-23T10:38:42;100213.06;;;17.53;38.12
85739;BME280;76182;41.498;22.100;2024-03-23T10:41:11;100209.50;;;17.52;37.11
85739;BME280;76182;41.498;22.100;2024-03-23T10:43:37;100206.50;;;17.24;37.13
85739;BME280;76182;41.498;22.100;2024-03-23T10:46:03;100198.72;;;17.52;37.89
85739;BME280;76182;41.498;22.100;2024-03-23T10:48:30;100204.34;;;17.43;37.27
85739;BME280;76182;41.498;22.100;2024-03-23T10:50:55;100193.56;;;17.43;37.03
85739;BME280;76182;41.498;22.100;2024-03-23T10:53:28;100186.69;;;17.63;35.87
85739;BME280;76182;41.498;22.100;2024-03-23T10:55:55;100181.22;;;17.25;36.38
85739;BME280;76182;41.498;22.100;2024-03-23T10:58:28;100175.84;;;17.25;36.26
85739;BME280;76182;41.498;22.100;2024-03-23T11:00:55;100169.28;;;17.43;35.58
85739;BME280;76182;41.498;22.100;2024-03-23T11:03:37;100166.50;;;17.74;36.52
85739;BME280;76182;41.498;22.100;2024-03-23T11:06:06;100158.50;;;17.43;35.81
85739;BME280;76182;41.498;22.100;2024-03-23T11:08:37;100154.47;;;17.85;34.99
85739;BME280;76182;41.498;22.100;2024-03-23T11:11:18;100149.66;;;17.95;34.85
85739;BME280;76182;41.498;22.100;2024-03-23T11:13:52;100140.69;;;18.09;35.12
85739;BME280;76182;41.498;22.100;2024-03-23T11:16:25;100135.59;;;18.14;35.02
85739;BME280;76182;41.498;22.100;2024-03-23T11:18:53;100126.91;;;17.89;33.50
85739;BME280;76182;41.498;22.100;2024-03-23T11:21:54;100126.56;;;18.07;32.87
85739;BME280;76182;41.498;22.100;2024-03-23T11:24:21;100113.25;;;18.20;33.50
85739;BME280;76182;41.498;22.100;2024-03-23T11:26:48;100112.69;;;17.95;32.85
85739;BME280;76182;41.498;22.100;2024-03-23T11:29:17;100103.19;;;18.14;33.23
85739;BME280;76182;41.498;22.100;2024-03-23T11:31:50;100104.66;;;18.46;32.20
85739;BME280;76182;41.498;22.100;2024-03-23T11:34:16;100097.66;;;18.52;31.80
85739;BME280;76182;41.498;22.100;2024-03-23T11:36:42;100094.22;;;18.43;31.29
85739;BME280;76182;41.498;22.100;2024-03-23T11:39:12;100086.31;;;18.42;31.01
85739;BME280;76182;41.498;22.100;2024-03-23T11:41:48;100080.53;;;18.45;31.05
85739;BME280;76182;41.498;22.100;2024-03-23T11:44:21;100078.84;;;18.44;30.04
85739;BME280;76182;41.498;22.100;2024-03-23T11:46:48;100067.78;;;18.09;29.59
85739;BME280;76182;41.498;22.100;2024-03-23T11:49:29;100057.06;;;18.30;30.37
85739;BME280;76182;41.498;22.100;2024-03-23T11:51:56;100057.94;;;18.52;30.11
85739;BME280;76182;41.498;22.100;2024-03-23T11:54:23;100049.13;;;18.44;29.99
85739;BME280;76182;41.498;22.100;2024-03-23T11:57:08;100045.78;;;18.78;31.05
85739;BME280;76182;41.498;22.100;2024-03-23T11:59:38;100040.22;;;18.80;31.04
85739;BME280;76182;41.498;22.100;2024-03-23T12:02:09;100028.50;;;18.58;29.59
85739;BME280;76182;41.498;22.100;2024-03-23T12:04:42;100023.84;;;18.88;30.89
85739;BME280;76182;41.498;22.100;2024-03-23T12:07:14;100014.28;;;19.13;30.66
85739;BME280;76182;41.498;22.100;2024-03-23T12:09:41;100016.78;;;18.72;29.32
85739;BME280;76182;41.498;22.100;2024-03-23T12:12:24;100009.03;;;18.84;29.02
85739;BME280;76182;41.498;22.100;2024-03-23T12:15:04;100007.66;;;19.16;29.55
85739;BME280;76182;41.498;22.100;2024-03-23T12:17:30;100002.69;;;19.19;28.07
85739;BME280;76182;41.498;22.100;2024-03-23T12:19:56;99994.78;;;19.18;28.31
85739;BME280;76182;41.498;22.100;2024-03-23T12:22:22;99986.44;;;19.19;26.22
85739;BME280;76182;41.498;22.100;2024-03-23T12:24:48;99987.00;;;19.36;26.54
85739;BME280;76182;41.498;22.100;2024-03-23T12:27:14;99983.66;;;19.06;26.30
85739;BME280;76182;41.498;22.100;2024-03-23T12:29:40;99984.16;;;19.16;26.97
85739;BME280;76182;41.498;22.100;2024-03-23T12:32:08;99969.75;;;19.09;26.26
85739;BME280;76182;41.498;22.100;2024-03-23T12:34:33;99970.19;;;19.13;26.71
85739;BME280;76182;41.498;22.100;2024-03-23T12:36:59;99962.81;;;19.28;26.88
85739;BME280;76182;41.498;22.100;2024-03-23T12:39:24;99961.09;;;19.20;26.33
85739;BME280;76182;41.498;22.100;2024-03-23T12:41:50;99953.31;;;19.39;26.35
85739;BME280;76182;41.498;22.100;2024-03-23T12:44:18;99952.75;;;19.50;25.73
85739;BME280;76182;41.498;22.100;2024-03-23T12:46:44;99949.09;;;19.30;26.75
85739;BME280;76182;41.498;22.100;2024-03-23T12:49:10;99937.22;;;19.31;25.57
85739;BME280;76182;41.498;22.100;2024-03-23T12:51:35;99935.66;;;19.15;25.73
85739;BME280;76182;41.498;22.100;2024-03-23T12:54:01;99923.44;;;19.26;25.41
85739;BME280;76182;41.498;22.100;2024-03-23T12:56:26;99920.09;;;19.17;25.43
85739;BME280;76182;41.498;22.100;2024-03-23T12:58:55;99926.00;;;19.34;26.40
85739;BME280;76182;41.498;22.100;2024-03-23T13:01:23;99919.63;;;19.48;25.83
85739;BME280;76182;41.498;22.100;2024-03-23T13:03:49;99909.44;;;19.50;25.18
85739;BME280;76182;41.498;22.100;2024-03-23T13:06:16;99899.47;;;19.57;25.99
85739;BME280;76182;41.498;22.100;2024-03-23T13:08:44;99899.06;;;19.54;25.19
85739;BME280;76182;41.498;22.100;2024-03-23T13:11:10;99903.75;;;19.38;25.86
85739;BME280;76182;41.498;22.100;2024-03-23T13:13:36;99901.63;;;19.27;25.05
85739;BME280;76182;41.498;22.100;2024-03-23T13:16:02;99881.22;;;19.25;24.39
85739;BME280;76182;41.498;22.100;2024-03-23T13:18:29;99881.69;;;19.35;24.37
85739;BME280;76182;41.498;22.100;2024-03-23T13:20:54;99884.19;;;19.36;24.39
85739;BME280;76182;41.498;22.100;2024-03-23T13:23:20;99878.41;;;19.46;23.96
85739;BME280;76182;41.498;22.100;2024-03-23T13:25:55;99874.63;;;19.40;24.90
85739;BME280;76182;41.498;22.100;2024-03-23T13:28:22;99869.72;;;19.57;24.87
85739;BME280;76182;41.498;22.100;2024-03-23T13:30:54;99862.63;;;19.56;23.89
85739;BME280;76182;41.498;22.100;2024-03-23T13:33:20;99868.91;;;19.63;23.60
85739;BME280;76182;41.498;22.100;2024-03-23T13:35:53;99859.06;;;19.49;23.81
85739;BME280;76182;41.498;22.100;2024-03-23T13:38:20;99855.56;;;19.55;24.48
85739;BME280;76182;41.498;22.100;2024-03-23T13:41:07;99853.44;;;19.51;24.22